Capital City Airport
KLAN : now visible

Airfield :











YOU CAN JOIN US ON...

 
LOGIN :

Register | Disclaimer

   EN    FR    IT 

 









Legend :    VFR   Marginal VFR   IFR   Intensive IFR   Very Intensive IFR
Visi :
Ceiling :
>= 8 km
>= 3000ft
5 to 8 km
1000 to 3000 ft
1500m to 5 km
500 to 1000 ft
800 to 1500m
200 to 500 ft
< 800m
< 200 ft
Symbols :   Thunderstorms  Fog  Heavy snow  Heavy precipitations  Wind > 20 kt






- Airport Elevation : 861 ft
- IATA code : LAN


KLAN - Capital City

CURRENT METAR :
  • 122153Z 17015KT 10SM CLR 01/M05 A3018 RMK AO2 SLP233 T00111050

EXPIRED METARs :
  • 122053Z 17015G22KT 10SM SCT090 01/M05 A3020 RMK AO2 SLP239 T00111050 56040
  • 121953Z 17013G26KT 10SM OVC095 02/M06 A3023 RMK AO2 PK WND 18027/1940 SLP250 T00171056

TAF KLAN
Valid from the 12 at 18:00 until the 13 at 18:00 UTC


121759Z 1218/1318 17015KT P6SM BKN250
FM122100 18016KT P6SM BKN200 WS020/21045KT
FM122300 18015G23KT P6SM BKN180 WS020/21045KT
FM130000 18015KT P6SM BKN180 WS020/21045KT
FM130700 20010KT P6SM BKN120 WS020/23040KT
FM130900 20009KT P6SM BKN080



MET'MAP, your aeronautical weather chart ! - Copyright ORBIFLY December 2007 - Disclaimer

ORBIFLY MET'MAP TEAM :

Programming & Development : Alexandra Zaïnal
Concept & original design : Baudouin d'Aumeries
Assistance for programming : Marc-Olivier Méhu
Technical & hardware support : Manuel Goepfert

Contact : metmap@orbifly.com




SOURCES & CREDITS :

   NOAA       Earth
Advisory